createdAt,value
2023-12-12T00:00:18.885Z,98088.31
2023-12-12T00:01:24.779Z,98086.66
2023-12-12T00:02:26.649Z,98090.22
2023-12-12T00:03:31.113Z,98086.06
2023-12-12T00:04:34.607Z,98098.00
2023-12-12T00:05:36.549Z,98103.31
2023-12-12T00:06:38.640Z,98094.66
2023-12-12T00:07:40.819Z,98094.31
2023-12-12T00:08:42.780Z,98095.88
2023-12-12T00:09:44.629Z,98099.53
2023-12-12T00:10:46.433Z,98104.16
2023-12-12T00:11:48.162Z,98111.22
2023-12-12T00:12:50.259Z,98102.25
2023-12-12T00:13:51.985Z,98100.59
2023-12-12T00:14:53.677Z,98097.66
2023-12-12T00:15:55.802Z,98102.94
2023-12-12T00:16:57.504Z,98102.84
2023-12-12T00:17:59.300Z,98105.91
2023-12-12T00:19:02.622Z,98104.25
2023-12-12T00:20:05.903Z,98118.91
2023-12-12T00:21:07.665Z,98113.00
2023-12-12T00:22:10.583Z,98112.06
2023-12-12T00:23:12.450Z,98112.06
2023-12-12T00:24:14.177Z,98116.41
2023-12-12T00:25:15.998Z,98117.97
2023-12-12T00:26:17.745Z,98111.81
2023-12-12T00:27:19.411Z,98125.44
2023-12-12T00:28:21.127Z,98115.03
2023-12-12T00:29:22.954Z,98128.97
2023-12-12T00:30:24.701Z,98108.28
2023-12-12T00:31:26.678Z,98119.88
2023-12-12T00:32:28.455Z,98121.53
2023-12-12T00:33:30.211Z,98119.63
2023-12-12T00:34:32.105Z,98117.97
2023-12-12T00:35:34.295Z,98123.78
2023-12-12T00:36:36.185Z,98127.56
2023-12-12T00:37:37.949Z,98126.81
2023-12-12T00:38:39.704Z,98123.41
2023-12-12T00:39:42.119Z,98129.66
2023-12-12T00:40:53.685Z,98136.66
2023-12-12T00:41:55.760Z,98135.00
2023-12-12T00:42:57.497Z,98134.25
2023-12-12T00:43:59.174Z,98140.31
2023-12-12T00:45:01.077Z,98144.78
2023-12-12T00:46:02.930Z,98147.06
2023-12-12T00:47:04.666Z,98146.91
2023-12-12T00:48:07.215Z,98154.13
2023-12-12T00:49:09.187Z,98146.69
2023-12-12T00:50:11.238Z,98151.16
2023-12-12T00:51:12.926Z,98149.50
2023-12-12T00:52:14.828Z,98152.59
2023-12-12T00:53:16.822Z,98153.53
2023-12-12T00:54:18.779Z,98152.25
2023-12-12T00:55:20.493Z,98159.13
2023-12-12T00:56:22.254Z,98157.47
2023-12-12T00:57:24.139Z,98158.97
2023-12-12T00:58:25.998Z,98161.00
2023-12-12T00:59:27.777Z,98172.94
2023-12-12T01:00:29.617Z,98179.06
2023-12-12T01:01:31.443Z,98171.16
2023-12-12T01:02:33.584Z,98169.50
2023-12-12T01:03:35.498Z,98170.34
2023-12-12T01:04:37.740Z,98169.50
2023-12-12T01:05:39.646Z,98170.56
2023-12-12T01:06:41.439Z,98178.38
2023-12-12T01:07:43.166Z,98179.31
2023-12-12T01:08:45.042Z,98181.06
2023-12-12T01:09:47.084Z,98175.06
2023-12-12T01:10:48.836Z,98181.41
2023-12-12T01:11:50.622Z,98181.19
2023-12-12T01:12:52.326Z,98185.56
2023-12-12T01:13:54.253Z,98192.75
2023-12-12T01:14:56.489Z,98191.00
2023-12-12T01:15:58.595Z,98198.91
2023-12-12T01:17:00.523Z,98183.19
2023-12-12T01:18:02.392Z,98200.22
2023-12-12T01:19:04.493Z,98203.75
2023-12-12T01:20:06.980Z,98201.06
2023-12-12T01:21:08.849Z,98203.44
2023-12-12T01:22:10.801Z,98211.94
2023-12-12T01:23:12.776Z,98205.22
2023-12-12T01:24:14.471Z,98194.59
2023-12-12T01:25:16.417Z,98192.91
2023-12-12T01:26:20.191Z,98203.00
2023-12-12T01:27:22.004Z,98204.03
2023-12-12T01:28:24.022Z,98203.69
2023-12-12T01:29:25.694Z,98188.69
2023-12-12T01:30:27.389Z,98186.19
2023-12-12T01:31:29.533Z,98191.50
2023-12-12T01:32:31.544Z,98185.25
2023-12-12T01:33:33.496Z,98191.88
2023-12-12T01:34:35.700Z,98195.31
2023-12-12T01:35:37.585Z,98193.66
2023-12-12T01:36:39.269Z,98194.63
2023-12-12T01:37:41.623Z,98195.06
2023-12-12T01:38:45.456Z,98199.53
2023-12-12T01:39:47.104Z,98192.44
2023-12-12T01:40:48.960Z,98189.50
2023-12-12T01:41:51.364Z,98190.22
2023-12-12T01:43:04.375Z,98192.97
2023-12-12T01:44:06.290Z,98198.03
2023-12-12T01:45:08.905Z,98192.72
2023-12-12T01:46:16.006Z,98191.06
2023-12-12T01:47:18.004Z,98183.25
2023-12-12T01:48:19.992Z,98184.06
2023-12-12T01:49:21.913Z,98184.31
2023-12-12T01:50:23.872Z,98193.66
2023-12-12T01:51:25.587Z,98198.72
2023-12-12T01:52:28.293Z,98201.34
2023-12-12T01:53:46.441Z,98189.28
2023-12-12T01:54:50.452Z,98184.78
2023-12-12T01:55:54.409Z,98193.31
2023-12-12T01:56:57.011Z,98182.66
2023-12-12T01:57:59.132Z,98190.47
2023-12-12T01:59:01.896Z,98197.56
2023-12-12T02:00:03.905Z,98198.69
2023-12-12T02:01:15.721Z,98193.16
2023-12-12T02:02:18.651Z,98201.72
2023-12-12T02:03:24.022Z,98199.09
2023-12-12T02:04:27.837Z,98195.06
2023-12-12T02:05:30.097Z,98198.25
2023-12-12T02:06:32.415Z,98194.00
2023-12-12T02:07:36.784Z,98190.56
2023-12-12T02:08:39.560Z,98195.91
2023-12-12T02:09:41.565Z,98196.84
2023-12-12T02:10:43.448Z,98189.75
2023-12-12T02:11:45.378Z,98199.44
2023-12-12T02:12:47.521Z,98200.16
2023-12-12T02:13:49.363Z,98206.41
2023-12-12T02:14:51.148Z,98199.44
2023-12-12T02:15:53.217Z,98199.53
2023-12-12T02:16:55.008Z,98200.25
2023-12-12T02:17:56.769Z,98196.94
2023-12-12T02:18:58.815Z,98198.69
2023-12-12T02:20:00.954Z,98205.59
2023-12-12T02:21:03.128Z,98202.75
2023-12-12T02:22:05.187Z,98209.34
2023-12-12T02:23:07.235Z,98206.13
2023-12-12T02:24:09.178Z,98209.56
2023-12-12T02:25:11.166Z,98213.94
2023-12-12T02:26:13.115Z,98210.28
2023-12-12T02:27:14.964Z,98217.13
2023-12-12T02:28:16.866Z,98211.94
2023-12-12T02:29:18.845Z,98215.16
2023-12-12T02:30:20.946Z,98219.63
2023-12-12T02:31:22.673Z,98219.63
2023-12-12T02:32:24.824Z,98222.09
2023-12-12T02:33:27.142Z,98222.09
2023-12-12T02:34:29.172Z,98220.34
2023-12-12T02:35:31.378Z,98229.72
2023-12-12T02:36:33.116Z,98220.84
2023-12-12T02:37:35.472Z,98222.72
2023-12-12T02:38:37.359Z,98228.88
2023-12-12T02:39:39.207Z,98223.56
2023-12-12T02:40:41.033Z,98227.59
2023-12-12T02:41:42.699Z,98225.94
2023-12-12T02:42:45.757Z,98230.41
2023-12-12T02:43:47.473Z,98225.31
2023-12-12T02:44:49.163Z,98221.66
2023-12-12T02:45:50.960Z,98226.78
2023-12-12T02:46:52.702Z,98231.03
2023-12-12T02:47:54.676Z,98228.53
2023-12-12T02:48:56.664Z,98238.00
2023-12-12T02:49:58.373Z,98234.78
2023-12-12T02:51:00.058Z,98238.00
2023-12-12T02:52:01.984Z,98236.22
2023-12-12T02:53:03.790Z,98230.19
2023-12-12T02:54:05.500Z,98232.06
2023-12-12T02:55:07.812Z,98238.69
2023-12-12T02:56:09.906Z,98232.56
2023-12-12T02:57:11.804Z,98241.19
2023-12-12T02:58:13.524Z,98237.88
2023-12-12T02:59:15.424Z,98237.88
2023-12-12T03:00:17.425Z,98236.00
2023-12-12T03:01:19.560Z,98240.34
2023-12-12T03:02:21.343Z,98241.31
2023-12-12T03:03:23.174Z,98242.97
2023-12-12T03:04:25.094Z,98242.00
2023-12-12T03:05:26.901Z,98242.97
2023-12-12T03:06:28.955Z,98237.66
2023-12-12T03:07:30.927Z,98247.22
2023-12-12T03:08:32.861Z,98249.81
2023-12-12T03:09:34.574Z,98247.00
2023-12-12T03:10:36.561Z,98250.31
2023-12-12T03:11:38.436Z,98248.66
2023-12-12T03:12:40.113Z,98244.06
2023-12-12T03:13:41.796Z,98249.16
2023-12-12T03:14:43.457Z,98244.66
2023-12-12T03:15:45.532Z,98249.75
2023-12-12T03:16:47.272Z,98248.69
2023-12-12T03:17:49.177Z,98256.94
2023-12-12T03:18:50.976Z,98250.00
2023-12-12T03:19:53.253Z,98257.66
2023-12-12T03:20:58.584Z,98259.69
2023-12-12T03:22:00.508Z,98264.88
2023-12-12T03:23:02.545Z,98264.03
2023-12-12T03:24:04.613Z,98262.16
2023-12-12T03:25:06.887Z,98262.28
2023-12-12T03:26:08.618Z,98259.31
2023-12-12T03:27:10.283Z,98269.25
2023-12-12T03:28:12.700Z,98267.34
2023-12-12T03:29:14.555Z,98263.72
2023-12-12T03:30:16.537Z,98269.84
2023-12-12T03:31:18.452Z,98269.16
2023-12-12T03:32:20.334Z,98271.63
2023-12-12T03:33:22.285Z,98268.69
2023-12-12T03:34:24.211Z,98272.00
2023-12-12T03:35:25.949Z,98271.41
2023-12-12T03:36:28.157Z,98274.00
2023-12-12T03:37:30.098Z,98270.56
2023-12-12T03:38:31.947Z,98274.81
2023-12-12T03:39:33.822Z,98272.31
2023-12-12T03:40:35.607Z,98272.94
2023-12-12T03:41:37.492Z,98272.22
2023-12-12T03:42:39.355Z,98281.53
2023-12-12T03:43:41.026Z,98280.38
2023-12-12T03:44:42.695Z,98277.53
2023-12-12T03:45:44.776Z,98273.41
2023-12-12T03:46:46.639Z,98276.00
2023-12-12T03:47:48.546Z,98280.03
2023-12-12T03:48:50.350Z,98278.28
2023-12-12T03:49:52.147Z,98277.53
2023-12-12T03:50:53.843Z,98280.03
2023-12-12T03:51:55.832Z,98279.09
2023-12-12T03:52:57.523Z,98277.31
2023-12-12T03:53:59.224Z,98276.38
2023-12-12T03:55:01.188Z,98276.16
2023-12-12T03:56:03.885Z,98279.59
2023-12-12T03:57:05.600Z,98275.19
2023-12-12T03:58:07.478Z,98279.34
2023-12-12T03:59:09.352Z,98276.50
2023-12-12T04:00:12.305Z,98285.97
2023-12-12T04:01:14.440Z,98279.72
2023-12-12T04:02:16.293Z,98288.13
2023-12-12T04:03:18.125Z,98286.34
2023-12-12T04:04:19.942Z,98284.25
2023-12-12T04:05:21.733Z,98286.16
2023-12-12T04:06:24.289Z,98294.88
2023-12-12T04:07:26.042Z,98284.47
2023-12-12T04:08:27.894Z,98292.16
2023-12-12T04:09:30.593Z,98282.00
2023-12-12T04:10:32.381Z,98288.25
2023-12-12T04:11:34.264Z,98289.28
2023-12-12T04:12:37.515Z,98296.28
2023-12-12T04:13:39.370Z,98286.81
2023-12-12T04:14:41.754Z,98291.69
2023-12-12T04:15:43.607Z,98287.28
2023-12-12T04:16:45.264Z,98289.19
2023-12-12T04:17:47.028Z,98287.63
2023-12-12T04:18:49.931Z,98302.44
2023-12-12T04:19:51.776Z,98302.19
2023-12-12T04:20:53.597Z,98304.38
2023-12-12T04:21:55.500Z,98307.53
2023-12-12T04:22:57.515Z,98313.34
2023-12-12T04:23:59.322Z,98310.66
2023-12-12T04:25:01.279Z,98302.94
2023-12-12T04:26:03.221Z,98305.56
2023-12-12T04:27:05.046Z,98306.97
2023-12-12T04:28:08.349Z,98304.94
2023-12-12T04:29:10.159Z,98311.59
2023-12-12T04:30:12.437Z,98326.13
2023-12-12T04:31:17.447Z,98326.97
2023-12-12T04:32:19.152Z,98323.31
2023-12-12T04:33:22.037Z,98323.81
2023-12-12T04:34:24.049Z,98327.44
2023-12-12T04:35:28.150Z,98326.97
2023-12-12T04:36:30.267Z,98325.09
2023-12-12T04:37:32.353Z,98329.00
2023-12-12T04:38:36.705Z,98327.44
2023-12-12T04:39:38.700Z,98336.69
2023-12-12T04:40:40.584Z,98332.44
2023-12-12T04:41:42.395Z,98335.03
2023-12-12T04:42:44.410Z,98333.25
2023-12-12T04:43:46.095Z,98337.03
2023-12-12T04:44:47.821Z,98338.31
2023-12-12T04:45:49.950Z,98328.13
2023-12-12T04:46:51.935Z,98323.47
2023-12-12T04:47:54.309Z,98334.09
2023-12-12T04:48:56.276Z,98324.78
2023-12-12T04:49:58.662Z,98335.19
2023-12-12T04:51:00.385Z,98331.03
2023-12-12T04:52:02.100Z,98334.09
2023-12-12T04:53:03.819Z,98337.56
2023-12-12T04:54:05.736Z,98337.78
2023-12-12T04:55:07.762Z,98337.78
2023-12-12T04:56:10.178Z,98342.38
2023-12-12T04:57:11.846Z,98339.66
2023-12-12T04:58:13.795Z,98340.38
2023-12-12T04:59:15.518Z,98341.31
2023-12-12T05:00:17.413Z,98333.00
2023-12-12T05:01:19.501Z,98342.38
2023-12-12T05:02:21.405Z,98340.38
2023-12-12T05:03:23.284Z,98344.97
2023-12-12T05:04:25.129Z,98344.97
2023-12-12T05:05:26.931Z,98347.59
2023-12-12T05:06:28.620Z,98358.69
2023-12-12T05:07:30.982Z,98353.50
2023-12-12T05:08:32.961Z,98354.31
2023-12-12T05:09:35.019Z,98352.22
2023-12-12T05:10:37.177Z,98351.28
2023-12-12T05:11:39.380Z,98359.47
2023-12-12T05:12:41.156Z,98355.47
2023-12-12T05:13:43.067Z,98364.63
2023-12-12T05:14:44.766Z,98362.59
2023-12-12T05:15:46.502Z,98366.38
2023-12-12T05:16:57.767Z,98368.25
2023-12-12T05:18:06.559Z,98364.94
2023-12-12T05:19:08.423Z,98365.38
2023-12-12T05:20:11.155Z,98365.72
2023-12-12T05:21:13.248Z,98368.22
2023-12-12T05:22:14.976Z,98375.69
2023-12-12T05:23:17.502Z,98372.84
2023-12-12T05:24:19.297Z,98376.31
2023-12-12T05:25:22.299Z,98383.50
2023-12-12T05:26:25.411Z,98387.75
2023-12-12T05:27:27.138Z,98388.25
2023-12-12T05:28:29.332Z,98380.22
2023-12-12T05:29:31.144Z,98393.84
2023-12-12T05:30:32.935Z,98388.84
2023-12-12T05:31:34.825Z,98385.88
2023-12-12T05:32:36.709Z,98390.03
2023-12-12T05:33:39.091Z,98393.00
2023-12-12T05:34:41.049Z,98394.28
2023-12-12T05:35:42.861Z,98400.44
2023-12-12T05:36:44.539Z,98398.66
2023-12-12T05:37:46.351Z,98399.59
2023-12-12T05:38:48.102Z,98404.72
2023-12-12T05:39:49.763Z,98399.50
2023-12-12T05:40:51.852Z,98404.00
2023-12-12T05:41:53.518Z,98395.25
2023-12-12T05:42:55.381Z,98393.44
2023-12-12T05:43:57.336Z,98406.09
2023-12-12T05:44:58.958Z,98395.28
2023-12-12T05:46:01.042Z,98403.09
2023-12-12T05:47:02.874Z,98397.78
2023-12-12T05:48:05.365Z,98395.19
2023-12-12T05:49:07.357Z,98392.91
2023-12-12T05:50:09.677Z,98400.63
2023-12-12T05:51:11.533Z,98401.53
2023-12-12T05:52:13.245Z,98405.94
2023-12-12T05:53:15.507Z,98404.28
2023-12-12T05:54:17.225Z,98403.56
2023-12-12T05:55:19.097Z,98414.78
2023-12-12T05:56:20.809Z,98414.91
2023-12-12T05:57:22.545Z,98409.91
2023-12-12T05:58:24.711Z,98406.72
2023-12-12T05:59:26.784Z,98404.81
2023-12-12T06:00:28.638Z,98410.53
2023-12-12T06:01:30.378Z,98418.84
2023-12-12T06:02:32.298Z,98418.09
2023-12-12T06:03:37.126Z,98418.94
2023-12-12T06:04:40.282Z,98412.38
2023-12-12T06:05:42.182Z,98414.13
2023-12-12T06:06:45.439Z,98427.97
2023-12-12T06:07:47.700Z,98433.06
2023-12-12T06:08:49.580Z,98429.84
2023-12-12T06:09:51.511Z,98432.56
2023-12-12T06:10:53.208Z,98433.50
2023-12-12T06:11:55.315Z,98432.06
2023-12-12T06:12:57.124Z,98438.81
2023-12-12T06:13:58.824Z,98440.56
2023-12-12T06:15:00.621Z,98435.28
2023-12-12T06:16:02.676Z,98438.50
2023-12-12T06:17:04.762Z,98445.84
2023-12-12T06:18:06.974Z,98448.72
2023-12-12T06:19:08.799Z,98437.84
2023-12-12T06:20:10.883Z,98440.31
2023-12-12T06:21:12.808Z,98449.69
2023-12-12T06:22:14.890Z,98454.16
2023-12-12T06:23:16.591Z,98450.84
2023-12-12T06:24:18.375Z,98453.16
2023-12-12T06:25:20.138Z,98453.78
2023-12-12T06:26:21.891Z,98460.41
2023-12-12T06:27:25.206Z,98459.00
2023-12-12T06:28:27.124Z,98454.00
2023-12-12T06:29:28.858Z,98467.03
2023-12-12T06:30:30.775Z,98466.09
2023-12-12T06:31:32.655Z,98471.06
2023-12-12T06:32:34.740Z,98468.69
2023-12-12T06:33:38.901Z,98472.56
2023-12-12T06:34:40.743Z,98465.56
2023-12-12T06:35:44.186Z,98470.06
2023-12-12T06:36:45.886Z,98473.38
2023-12-12T06:37:47.785Z,98472.66
2023-12-12T06:38:49.466Z,98465.88
2023-12-12T06:39:51.325Z,98469.44
2023-12-12T06:40:53.278Z,98465.78
2023-12-12T06:41:55.203Z,98467.78
2023-12-12T06:42:57.149Z,98468.50
2023-12-12T06:43:59.037Z,98468.50
2023-12-12T06:45:00.703Z,98470.28
2023-12-12T06:46:02.452Z,98472.88
2023-12-12T06:47:04.392Z,98474.63
2023-12-12T06:48:06.492Z,98472.34
2023-12-12T06:49:08.667Z,98474.25
2023-12-12T06:50:10.833Z,98474.16
2023-12-12T06:51:12.638Z,98476.63
2023-12-12T06:52:14.716Z,98475.34
2023-12-12T06:53:16.633Z,98479.03
2023-12-12T06:54:18.673Z,98472.03
2023-12-12T06:55:20.421Z,98481.63
2023-12-12T06:56:22.089Z,98480.91
2023-12-12T06:57:24.119Z,98477.69
2023-12-12T06:58:26.002Z,98472.34
2023-12-12T06:59:27.789Z,98485.88
2023-12-12T07:00:29.421Z,98476.09
2023-12-12T07:01:31.389Z,98475.88
2023-12-12T07:02:33.240Z,98477.22
2023-12-12T07:03:36.078Z,98478.16
2023-12-12T07:04:38.046Z,98472.00
2023-12-12T07:05:40.053Z,98469.16
2023-12-12T07:06:41.830Z,98471.69
2023-12-12T07:07:43.626Z,98472.50
2023-12-12T07:08:47.199Z,98474.75
2023-12-12T07:09:59.077Z,98481.84
2023-12-12T07:11:02.395Z,98474.28
2023-12-12T07:12:04.495Z,98475.09
2023-12-12T07:13:06.374Z,98477.69
2023-12-12T07:14:08.103Z,98483.03
2023-12-12T07:15:10.362Z,98478.03
2023-12-12T07:16:12.097Z,98481.56
2023-12-12T07:17:13.795Z,98482.28
2023-12-12T07:18:15.871Z,98484.88
2023-12-12T07:19:17.802Z,98481.25
2023-12-12T07:20:19.570Z,98484.06
2023-12-12T07:21:21.352Z,98489.69
2023-12-12T07:22:23.152Z,98492.09
2023-12-12T07:23:25.104Z,98487.22
2023-12-12T07:24:27.018Z,98486.50
2023-12-12T07:25:28.714Z,98487.31
2023-12-12T07:26:30.429Z,98489.84
2023-12-12T07:27:32.330Z,98494.19
2023-12-12T07:28:34.190Z,98498.44
2023-12-12T07:29:35.966Z,98492.22
2023-12-12T07:30:37.866Z,98492.94
2023-12-12T07:31:39.797Z,98497.00
2023-12-12T07:32:41.477Z,98492.69
2023-12-12T07:33:43.226Z,98495.31
2023-12-12T07:34:45.071Z,98498.75
2023-12-12T07:35:47.018Z,98500.31
2023-12-12T07:36:48.858Z,98496.75
2023-12-12T07:37:50.906Z,98493.00
2023-12-12T07:38:52.766Z,98504.13
2023-12-12T07:39:54.722Z,98505.69
2023-12-12T07:40:56.926Z,98506.41
2023-12-12T07:41:58.746Z,98502.22
2023-12-12T07:43:00.659Z,98508.19
2023-12-12T07:44:02.421Z,98511.59
2023-12-12T07:45:04.634Z,98520.38
2023-12-12T07:46:06.581Z,98516.00
2023-12-12T07:47:08.617Z,98519.53
2023-12-12T07:48:10.609Z,98523.81
2023-12-12T07:49:12.911Z,98516.31
2023-12-12T07:50:14.915Z,98522.06
2023-12-12T07:51:17.231Z,98535.41
2023-12-12T07:52:19.093Z,98530.31
2023-12-12T07:53:22.938Z,98535.19
2023-12-12T07:54:24.692Z,98531.97
2023-12-12T07:55:26.585Z,98539.06
2023-12-12T07:56:28.316Z,98537.41
2023-12-12T07:57:30.444Z,98538.13
2023-12-12T07:58:32.535Z,98542.38
2023-12-12T07:59:34.262Z,98537.41
2023-12-12T08:00:36.125Z,98543.41
2023-12-12T08:01:38.305Z,98538.66
2023-12-12T08:02:40.369Z,98539.47
2023-12-12T08:03:42.254Z,98540.22
2023-12-12T08:04:43.962Z,98534.28
2023-12-12T08:05:45.984Z,98536.28
2023-12-12T08:06:47.914Z,98538.97
2023-12-12T08:07:49.632Z,98540.63
2023-12-12T08:08:51.505Z,98534.41
2023-12-12T08:09:53.275Z,98536.88
2023-12-12T08:10:54.955Z,98538.44
2023-12-12T08:11:57.476Z,98534.78
2023-12-12T08:12:59.349Z,98538.75
2023-12-12T08:14:01.744Z,98537.06
2023-12-12T08:15:03.801Z,98538.63
2023-12-12T08:16:06.296Z,98526.44
2023-12-12T08:17:08.170Z,98527.28
2023-12-12T08:18:09.985Z,98537.47
2023-12-12T08:19:11.851Z,98526.03
2023-12-12T08:20:13.850Z,98527.44
2023-12-12T08:21:15.656Z,98529.97
2023-12-12T08:22:17.406Z,98530.53
2023-12-12T08:23:19.246Z,98537.53
2023-12-12T08:24:21.061Z,98532.34
2023-12-12T08:25:22.983Z,98537.03
2023-12-12T08:26:24.745Z,98546.41
2023-12-12T08:27:26.369Z,98554.53
2023-12-12T08:28:28.063Z,98550.97
2023-12-12T08:29:32.216Z,98556.81
2023-12-12T08:30:34.263Z,98548.06
2023-12-12T08:31:36.196Z,98558.59
2023-12-12T08:32:38.256Z,98562.03
2023-12-12T08:33:40.593Z,98561.78
2023-12-12T08:34:42.346Z,98556.41
2023-12-12T08:35:44.211Z,98551.56
2023-12-12T08:36:45.915Z,98553.34
2023-12-12T08:37:47.698Z,98550.72
2023-12-12T08:38:49.570Z,98549.69
2023-12-12T08:39:51.299Z,98544.56
2023-12-12T08:40:53.136Z,98546.94
2023-12-12T08:41:54.911Z,98546.75
2023-12-12T08:42:56.691Z,98542.13
2023-12-12T08:43:59.339Z,98553.06
2023-12-12T08:45:01.223Z,98552.34
2023-12-12T08:46:03.207Z,98549.19
2023-12-12T08:47:05.074Z,98553.47
2023-12-12T08:48:07.025Z,98550.75
2023-12-12T08:49:09.346Z,98548.97
2023-12-12T08:50:11.249Z,98559.28
2023-12-12T08:51:13.174Z,98557.50
2023-12-12T08:52:15.307Z,98554.88
2023-12-12T08:53:17.641Z,98554.66
2023-12-12T08:54:19.502Z,98555.41
2023-12-12T08:55:21.255Z,98563.81
2023-12-12T08:56:23.156Z,98560.28
2023-12-12T08:57:25.376Z,98555.78
2023-12-12T08:58:27.123Z,98556.59
2023-12-12T08:59:29.077Z,98557.31
2023-12-12T09:00:30.985Z,98559.81
2023-12-12T09:01:32.952Z,98559.72
2023-12-12T09:02:34.890Z,98553.88
2023-12-12T09:03:36.937Z,98558.16
2023-12-12T09:04:38.886Z,98554.84
2023-12-12T09:05:40.621Z,98553.78
2023-12-12T09:06:42.304Z,98556.50
2023-12-12T09:07:44.509Z,98557.09
2023-12-12T09:08:46.207Z,98561.38
2023-12-12T09:09:47.880Z,98562.91
2023-12-12T09:10:49.692Z,98561.03
2023-12-12T09:11:51.452Z,98560.09
2023-12-12T09:12:53.424Z,98567.78
2023-12-12T09:13:55.137Z,98560.81
2023-12-12T09:14:56.891Z,98567.78
2023-12-12T09:15:58.608Z,98569.09
2023-12-12T09:17:00.316Z,98571.50
2023-12-12T09:18:15.637Z,98568.66
2023-12-12T09:19:21.332Z,98560.00
2023-12-12T09:20:23.374Z,98563.13
2023-12-12T09:21:25.490Z,98565.59
2023-12-12T09:22:27.436Z,98567.38
2023-12-12T09:23:29.541Z,98567.25
2023-12-12T09:24:31.280Z,98560.38
2023-12-12T09:25:33.456Z,98560.75
2023-12-12T09:26:35.297Z,98564.09
2023-12-12T09:27:36.949Z,98559.69
2023-12-12T09:28:41.208Z,98556.47
2023-12-12T09:29:43.401Z,98561.94
2023-12-12T09:30:45.476Z,98563.34
2023-12-12T09:31:47.491Z,98565.88
2023-12-12T09:32:49.727Z,98567.53
2023-12-12T09:33:51.486Z,98565.75
2023-12-12T09:34:53.308Z,98565.88
2023-12-12T09:35:55.162Z,98564.22
2023-12-12T09:36:56.889Z,98566.56
2023-12-12T09:37:58.590Z,98563.97
2023-12-12T09:39:00.310Z,98566.00
2023-12-12T09:40:05.087Z,98561.50
2023-12-12T09:41:09.249Z,98563.19
2023-12-12T09:42:15.585Z,98551.66
2023-12-12T09:43:20.435Z,98558.34
2023-12-12T09:44:22.726Z,98558.34
2023-12-12T09:45:24.622Z,98557.75
2023-12-12T09:46:26.786Z,98557.88
2023-12-12T09:47:30.402Z,98556.47
2023-12-12T09:48:33.919Z,98556.59
2023-12-12T09:49:36.671Z,98549.59
2023-12-12T09:50:39.129Z,98545.28
2023-12-12T09:51:42.735Z,98545.59
2023-12-12T09:52:47.342Z,98552.53
2023-12-12T09:53:49.935Z,98544.59
2023-12-12T09:54:56.419Z,98545.94
2023-12-12T09:56:02.083Z,98544.22
2023-12-12T09:57:05.595Z,98543.72
2023-12-12T09:58:07.919Z,98539.78
2023-12-12T09:59:09.807Z,98554.63
2023-12-12T10:00:12.074Z,98543.09
2023-12-12T10:01:14.055Z,98540.78
2023-12-12T10:02:22.544Z,98549.91
2023-12-12T10:03:26.135Z,98541.22
2023-12-12T10:04:28.223Z,98539.38
2023-12-12T10:05:33.797Z,98537.59
2023-12-12T10:06:51.311Z,98540.66
2023-12-12T10:08:00.603Z,98540.00
2023-12-12T10:09:07.163Z,98537.50
2023-12-12T10:10:13.638Z,98538.22
2023-12-12T10:11:15.528Z,98537.25
2023-12-12T10:12:17.916Z,98546.25
2023-12-12T10:13:20.548Z,98549.00
2023-12-12T10:14:39.227Z,98547.78
2023-12-12T10:15:40.917Z,98550.25
2023-12-12T10:16:43.028Z,98543.19
2023-12-12T10:17:44.987Z,98545.78
2023-12-12T10:18:48.318Z,98549.13
2023-12-12T10:20:00.351Z,98539.75
2023-12-12T10:21:14.407Z,98546.91
2023-12-12T10:22:16.155Z,98541.72
2023-12-12T10:23:18.297Z,98547.31
2023-12-12T10:24:26.903Z,98546.78
2023-12-12T10:25:35.449Z,98545.72
2023-12-12T10:26:37.697Z,98545.03
2023-12-12T10:27:43.132Z,98541.72
2023-12-12T10:28:44.937Z,98543.19
2023-12-12T10:29:46.760Z,98547.66
2023-12-12T10:30:53.142Z,98550.16
2023-12-12T10:31:55.095Z,98546.00
2023-12-12T10:32:57.067Z,98547.44
2023-12-12T10:33:59.546Z,98544.94
2023-12-12T10:35:03.271Z,98551.81
2023-12-12T10:36:09.898Z,98543.19
2023-12-12T10:37:11.833Z,98551.13
2023-12-12T10:38:14.573Z,98551.81
2023-12-12T10:39:17.315Z,98555.41
2023-12-12T10:40:21.532Z,98553.75
2023-12-12T10:41:26.606Z,98549.31
2023-12-12T10:42:33.361Z,98551.56
2023-12-12T10:43:35.531Z,98549.91
2023-12-12T10:44:39.906Z,98555.16
2023-12-12T10:45:41.616Z,98549.69
2023-12-12T10:46:44.918Z,98560.38
2023-12-12T10:47:49.127Z,98559.03
2023-12-12T10:48:51.577Z,98555.38
2023-12-12T10:49:57.166Z,98558.41
2023-12-12T10:51:02.896Z,98559.16
2023-12-12T10:52:06.588Z,98559.00
2023-12-12T10:53:10.469Z,98555.56
2023-12-12T10:54:12.535Z,98556.53
2023-12-12T10:55:15.886Z,98551.53
2023-12-12T10:56:17.751Z,98554.53
2023-12-12T10:57:20.317Z,98555.47
2023-12-12T10:58:23.035Z,98551.09
2023-12-12T10:59:57.357Z,98553.44
2023-12-12T11:00:49.544Z,98553.97
2023-12-12T11:01:51.965Z,98562.88
2023-12-12T11:02:54.395Z,98557.06
2023-12-12T11:03:58.583Z,98566.22
2023-12-12T11:05:01.647Z,98565.78
2023-12-12T11:06:07.194Z,98564.22
2023-12-12T11:07:09.343Z,98571.47
2023-12-12T11:08:12.024Z,98572.31
2023-12-12T11:09:13.790Z,98568.88
2023-12-12T11:10:19.181Z,98567.91
2023-12-12T11:11:24.650Z,98573.97
2023-12-12T11:12:28.858Z,98571.47
2023-12-12T11:13:34.601Z,98573.28
2023-12-12T11:14:37.707Z,98572.31
2023-12-12T11:15:40.609Z,98573.38
2023-12-12T11:16:45.227Z,98574.44
2023-12-12T11:17:48.643Z,98565.66
2023-12-12T11:18:52.815Z,98568.41
2023-12-12T11:19:55.166Z,98572.53
2023-12-12T11:20:57.033Z,98565.66
2023-12-12T11:21:58.761Z,98566.88
2023-12-12T11:23:00.643Z,98572.94
2023-12-12T11:24:02.526Z,98560.09
2023-12-12T11:25:05.610Z,98562.97
2023-12-12T11:26:08.204Z,98562.00
2023-12-12T11:27:10.974Z,98561.19
2023-12-12T11:28:13.133Z,98567.38
2023-12-12T11:29:18.762Z,98558.69
2023-12-12T11:30:30.243Z,98564.88
2023-12-12T11:31:35.765Z,98562.00
2023-12-12T11:32:37.567Z,98558.44
2023-12-12T11:34:04.982Z,98560.41
2023-12-12T11:35:07.694Z,98558.97
2023-12-12T11:36:26.106Z,98556.56
2023-12-12T11:37:48.213Z,98557.19
2023-12-12T11:38:49.920Z,98564.13
2023-12-12T11:39:51.762Z,98562.44
2023-12-12T11:41:10.331Z,98556.44
2023-12-12T11:42:18.940Z,98558.84
2023-12-12T11:43:23.704Z,98557.69
2023-12-12T11:44:25.751Z,98558.69
2023-12-12T11:45:32.008Z,98560.69
2023-12-12T11:46:33.746Z,98557.72
2023-12-12T11:47:35.746Z,98553.75
2023-12-12T11:48:37.675Z,98552.63
2023-12-12T11:49:39.548Z,98558.16
2023-12-12T11:50:41.258Z,98555.59
2023-12-12T11:51:44.040Z,98557.44
2023-12-12T11:52:45.684Z,98553.88
2023-12-12T11:53:48.396Z,98554.59
2023-12-12T11:54:56.130Z,98557.50
2023-12-12T11:56:03.523Z,98551.84
2023-12-12T11:57:08.756Z,98550.84
2023-12-12T11:58:11.241Z,98550.94
2023-12-12T11:59:13.234Z,98554.88
2023-12-12T12:00:18.807Z,98559.28
2023-12-12T12:01:21.703Z,98551.91
2023-12-12T12:02:23.510Z,98559.59
2023-12-12T12:03:25.313Z,98554.44
2023-12-12T12:04:26.982Z,98555.50
2023-12-12T12:05:28.996Z,98553.94
2023-12-12T12:06:30.712Z,98549.63
2023-12-12T12:07:32.827Z,98548.63
2023-12-12T12:08:34.542Z,98549.00
2023-12-12T12:09:36.262Z,98549.28
2023-12-12T12:10:38.199Z,98552.28
2023-12-12T12:11:41.036Z,98544.22
2023-12-12T12:13:01.360Z,98545.31
2023-12-12T12:14:03.329Z,98537.97
2023-12-12T12:15:07.649Z,98542.19
2023-12-12T12:16:10.615Z,98543.25